Time;durP1;ratioP1;P1;durP2;ratioP2;P2;SDS_P1;SDS_P2;PMS_P1;PMS_P2;Temp;Humidity;BMP_temperature;BMP_pressure;BME280_temperature;BME280_humidity;BME280_pressure;Samples;Min_cycle;Max_cycle;Signal;HPM_P1;HPM_P2
2022/03/08 00:02:13;;;;;;;16.83;7.75;;;28.60;80.90;;;;;;5066531;28;20041;-46
2022/03/08 00:04:40;;;;;;;16.20;7.60;;;28.50;81.40;;;;;;5066326;28;20044;-44
2022/03/08 00:07:07;;;;;;;16.15;8.07;;;28.50;80.80;;;;;;5066653;28;20032;-46
2022/03/08 00:09:34;;;;;;;16.83;7.53;;;28.50;80.70;;;;;;5066466;28;20036;-44
2022/03/08 00:12:00;;;;;;;14.23;7.68;;;28.50;80.70;;;;;;5066697;28;20281;-45
2022/03/08 00:14:27;;;;;;;17.92;7.78;;;28.50;80.70;;;;;;5066353;28;20044;-44
2022/03/08 00:16:53;;;;;;;26.15;8.00;;;28.40;80.70;;;;;;5067037;28;20032;-44
2022/03/08 00:19:20;;;;;;;21.60;8.20;;;28.40;80.80;;;;;;5066317;28;20020;-49
2022/03/08 00:21:47;;;;;;;16.00;7.47;;;28.40;80.90;;;;;;5066401;28;20037;-46
2022/03/08 00:24:16;;;;;;;16.98;8.60;;;28.40;80.90;;;;;;5066389;28;20017;-43
2022/03/08 00:26:43;;;;;;;18.30;7.75;;;28.40;81.10;;;;;;5066393;28;20052;-44
2022/03/08 00:29:10;;;;;;;15.85;8.15;;;28.30;81.00;;;;;;5065915;28;20021;-42
2022/03/08 00:31:36;;;;;;;16.17;7.82;;;28.30;81.10;;;;;;5066444;28;20021;-43
2022/03/08 00:34:04;;;;;;;16.77;7.60;;;28.30;80.80;;;;;;5065948;28;20060;-41
2022/03/08 00:36:32;;;;;;;17.27;7.90;;;28.20;80.80;;;;;;5066150;28;20088;-46
2022/03/08 00:38:59;;;;;;;17.45;8.10;;;28.20;81.00;;;;;;5066178;28;20033;-44
2022/03/08 00:41:25;;;;;;;17.15;7.50;;;28.20;81.00;;;;;;5066225;28;20021;-44
2022/03/08 00:43:52;;;;;;;15.43;8.10;;;28.20;81.10;;;;;;5048114;28;20036;-41
2022/03/08 00:46:19;;;;;;;12.68;7.07;;;28.20;81.10;;;;;;5065787;28;20237;-44
2022/03/08 00:48:47;;;;;;;13.95;7.82;;;28.10;80.90;;;;;;5065890;28;20039;-44
2022/03/08 00:51:14;;;;;;;15.85;7.45;;;28.10;80.90;;;;;;5065015;28;20100;-45
2022/03/08 00:53:40;;;;;;;12.75;7.53;;;28.10;81.10;;;;;;5065692;28;20024;-45
2022/03/08 00:56:07;;;;;;;17.55;7.32;;;28.10;81.20;;;;;;5065836;28;20021;-42
2022/03/08 00:58:36;;;;;;;13.50;7.60;;;28.10;81.20;;;;;;5065709;28;20029;-44
2022/03/08 01:01:12;;;;;;;14.75;8.52;;;28.10;80.90;;;;;;5065637;28;20301;-42
2022/03/08 01:03:40;;;;;;;16.40;8.02;;;28.00;81.00;;;;;;5064052;28;20090;-44
2022/03/08 01:06:07;;;;;;;13.07;8.13;;;28.00;80.90;;;;;;5047445;28;20060;-48
2022/03/08 01:08:34;;;;;;;18.90;8.15;;;28.00;81.10;;;;;;5065394;28;20028;-43
2022/03/08 01:11:04;;;;;;;17.50;8.23;;;28.00;81.00;;;;;;5065468;28;20044;-40
2022/03/08 01:13:30;;;;;;;15.00;8.10;;;28.00;81.10;;;;;;5047814;28;20037;-47
2022/03/08 01:15:57;;;;;;;16.23;7.55;;;28.00;81.00;;;;;;5047780;28;20037;-44
2022/03/08 01:18:23;;;;;;;21.55;8.55;;;28.00;80.90;;;;;;5065244;28;20347;-44
2022/03/08 01:20:51;;;;;;;19.20;7.93;;;28.00;80.80;;;;;;5065159;28;20036;-43
2022/03/08 01:23:17;;;;;;;22.17;9.38;;;28.00;80.80;;;;;;5064952;28;20055;-45
2022/03/08 01:25:44;;;;;;;23.98;9.38;;;28.00;80.60;;;;;;5065121;28;20025;-48
2022/03/08 01:28:10;;;;;;;14.55;8.18;;;28.00;80.50;;;;;;5064929;28;20142;-44
2022/03/08 01:30:37;;;;;;;20.00;8.88;;;28.00;80.60;;;;;;5064781;28;20051;-40
2022/03/08 01:33:04;;;;;;;14.32;8.32;;;28.00;80.50;;;;;;5064906;28;20029;-42
2022/03/08 01:35:30;;;;;;;19.02;7.75;;;28.00;80.20;;;;;;5064625;28;20309;-46
2022/03/08 01:37:57;;;;;;;23.90;8.27;;;28.00;79.90;;;;;;5064870;28;20013;-44
2022/03/08 01:40:24;;;;;;;21.27;8.07;;;28.00;79.80;;;;;;5064110;28;20037;-40
2022/03/08 01:42:51;;;;;;;20.30;9.20;;;28.00;79.70;;;;;;5064426;28;20244;-42
2022/03/08 01:45:21;;;;;;;22.83;12.60;;;28.00;79.70;;;;;;5064278;28;20375;-41
2022/03/08 01:47:49;;;;;;;26.83;8.95;;;28.00;79.60;;;;;;5064620;28;20044;-44
2022/03/08 01:50:17;;;;;;;17.15;9.32;;;28.00;79.40;;;;;;5064205;28;20109;-47
2022/03/08 01:52:44;;;;;;;20.10;9.48;;;28.00;79.50;;;;;;5064470;28;20092;-43
2022/03/08 01:55:13;;;;;;;19.02;9.68;;;28.10;79.30;;;;;;5064499;28;20017;-45
2022/03/08 01:57:39;;;;;;;17.80;8.43;;;28.10;79.30;;;;;;5064357;28;20097;-43
2022/03/08 02:00:11;;;;;;;51.20;9.90;;;28.10;79.20;;;;;;5046470;28;20037;-43
2022/03/08 02:02:39;;;;;;;17.27;8.30;;;28.10;79.10;;;;;;5063320;28;20052;-43
2022/03/08 02:05:06;;;;;;;17.38;8.13;;;28.10;79.00;;;;;;5063881;28;20057;-41
2022/03/08 02:07:33;;;;;;;14.10;7.75;;;28.10;78.70;;;;;;5064640;28;20029;-44
2022/03/08 02:10:00;;;;;;;15.50;9.00;;;28.10;78.60;;;;;;5064003;28;20041;-45
2022/03/08 02:12:26;;;;;;;25.10;8.38;;;28.10;78.40;;;;;;5064632;28;20041;-47
2022/03/08 02:14:53;;;;;;;21.65;7.90;;;28.10;78.50;;;;;;5063932;28;20209;-39
2022/03/08 02:17:20;;;;;;;15.75;8.48;;;28.10;78.40;;;;;;5064465;28;20316;-46
2022/03/08 02:19:46;;;;;;;17.73;8.57;;;28.10;78.30;;;;;;5069232;28;20036;-46
2022/03/08 02:22:13;;;;;;;19.38;7.60;;;28.10;78.30;;;;;;5073859;28;20060;-42
2022/03/08 02:24:39;;;;;;;19.60;7.80;;;28.10;78.20;;;;;;5072434;28;20033;-48
2022/03/08 02:27:08;;;;;;;18.35;8.13;;;28.10;78.30;;;;;;5072480;28;20026;-40
2022/03/08 02:29:34;;;;;;;17.50;7.70;;;28.10;78.30;;;;;;5073690;28;20033;-41
2022/03/08 02:32:01;;;;;;;19.20;8.85;;;28.10;78.30;;;;;;5072950;28;20044;-42
2022/03/08 02:34:28;;;;;;;15.95;7.75;;;28.10;78.00;;;;;;5072239;28;20250;-47
2022/03/08 02:36:59;;;;;;;15.40;7.82;;;28.10;78.10;;;;;;5073797;28;20048;-43
2022/03/08 02:39:26;;;;;;;16.65;7.63;;;28.10;78.10;;;;;;5073105;28;20028;-48
2022/03/08 02:41:53;;;;;;;14.10;8.02;;;28.10;78.20;;;;;;5072031;28;20090;-41
2022/03/08 02:44:19;;;;;;;19.90;8.75;;;28.10;78.60;;;;;;5072801;28;20028;-44
2022/03/08 02:46:46;;;;;;;25.77;8.68;;;28.10;78.80;;;;;;5073445;28;20260;-47
2022/03/08 02:49:12;;;;;;;14.60;8.88;;;28.10;78.80;;;;;;5071338;28;20150;-43
2022/03/08 02:51:39;;;;;;;15.60;9.32;;;28.20;79.10;;;;;;5073536;28;20036;-47
2022/03/08 02:54:06;;;;;;;13.30;9.57;;;28.10;79.20;;;;;;5072984;28;20131;-41
2022/03/08 02:56:33;;;;;;;29.95;21.15;;;28.20;79.30;;;;;;5071742;28;20017;-46
2022/03/08 02:59:00;;;;;;;18.55;13.13;;;28.10;79.90;;;;;;5078641;28;20137;-43
2022/03/08 03:01:27;;;;;;;16.50;12.23;;;28.10;79.40;;;;;;5084003;28;20028;-46
2022/03/08 03:03:53;;;;;;;18.25;10.70;;;28.10;79.50;;;;;;5083650;28;20020;-43
2022/03/08 03:06:20;;;;;;;15.02;10.52;;;28.10;79.60;;;;;;5083588;28;20041;-42
2022/03/08 03:08:49;;;;;;;19.92;13.73;;;28.10;79.90;;;;;;5083217;28;20044;-45
2022/03/08 03:11:15;;;;;;;16.25;10.50;;;28.10;79.70;;;;;;5082293;28;20028;-46
2022/03/08 03:14:07;;;;;;;17.85;10.63;;;28.10;79.80;;;;;;5073399;28;20021;-45
2022/03/08 03:16:35;;;;;;;12.77;9.40;;;28.00;79.40;;;;;;5075402;28;20035;-45
2022/03/08 03:19:02;;;;;;;17.73;9.68;;;28.00;79.00;;;;;;5076271;28;20032;-44
2022/03/08 03:21:29;;;;;;;13.98;9.50;;;28.10;79.30;;;;;;5059593;28;20037;-46
2022/03/08 03:23:56;;;;;;;15.30;9.07;;;28.10;79.30;;;;;;5075494;28;20070;-45
2022/03/08 03:26:23;;;;;;;13.75;9.10;;;28.00;79.00;;;;;;5076270;28;20380;-41
2022/03/08 03:28:50;;;;;;;15.02;9.50;;;28.00;79.00;;;;;;5077020;28;20078;-43
2022/03/08 03:31:17;;;;;;;10.77;8.00;;;28.00;79.10;;;;;;5075489;28;20053;-46
2022/03/08 03:33:43;;;;;;;13.55;8.32;;;28.00;79.20;;;;;;5075754;28;20344;-42
2022/03/08 03:36:10;;;;;;;12.13;8.48;;;28.10;79.30;;;;;;5077168;28;20020;-46
2022/03/08 03:38:36;;;;;;;10.77;8.38;;;28.00;79.30;;;;;;5075364;28;20036;-43
2022/03/08 03:41:03;;;;;;;10.60;8.15;;;28.00;79.10;;;;;;5075727;28;20039;-42
2022/03/08 03:43:30;;;;;;;12.90;7.90;;;28.00;78.90;;;;;;5076545;28;20142;-44
2022/03/08 03:45:56;;;;;;;13.25;8.63;;;28.00;79.00;;;;;;5075295;28;20047;-45
2022/03/08 03:48:23;;;;;;;13.55;8.73;;;28.00;78.90;;;;;;5075539;28;20024;-42
2022/03/08 03:50:50;;;;;;;14.90;8.27;;;28.10;79.00;;;;;;5076647;28;20024;-42
2022/03/08 03:53:17;;;;;;;13.90;8.00;;;28.00;78.80;;;;;;5075602;28;20324;-46
2022/03/08 03:55:43;;;;;;;15.00;8.30;;;28.00;79.70;;;;;;5075020;28;20201;-43
2022/03/08 03:58:10;;;;;;;14.95;8.27;;;28.00;79.20;;;;;;5074430;28;20084;-41
2022/03/08 04:00:36;;;;;;;13.38;8.10;;;28.00;79.00;;;;;;5075093;28;20309;-46
2022/03/08 04:03:03;;;;;;;13.75;7.57;;;28.00;78.50;;;;;;5076621;28;20025;-46
2022/03/08 04:05:30;;;;;;;13.65;7.85;;;28.00;78.40;;;;;;5074117;28;20060;-47
2022/03/08 04:07:57;;;;;;;11.20;7.47;;;28.00;78.30;;;;;;5073809;28;20048;-44
2022/03/08 04:10:23;;;;;;;14.15;8.05;;;28.00;77.80;;;;;;5076393;28;20036;-45
2022/03/08 04:12:50;;;;;;;13.73;8.18;;;28.00;77.60;;;;;;5057129;28;20074;-47
2022/03/08 04:15:17;;;;;;;13.10;7.85;;;28.00;77.40;;;;;;5074524;28;20021;-42
2022/03/08 04:17:44;;;;;;;13.40;7.47;;;28.00;77.70;;;;;;5075878;28;20384;-43
2022/03/08 04:20:11;;;;;;;13.52;8.13;;;28.00;77.70;;;;;;5076533;28;20020;-44
2022/03/08 04:22:38;;;;;;;11.32;8.07;;;28.00;77.50;;;;;;5074498;28;20025;-42
2022/03/08 04:25:06;;;;;;;13.02;8.07;;;28.00;77.40;;;;;;5074473;28;20319;-45
2022/03/08 04:27:33;;;;;;;11.40;8.00;;;28.00;77.20;;;;;;5077539;28;20017;-41
2022/03/08 04:30:00;;;;;;;16.05;8.13;;;28.00;77.30;;;;;;5074470;28;20033;-43
2022/03/08 04:32:26;;;;;;;13.57;8.10;;;28.00;77.30;;;;;;5080286;28;20392;-42
2022/03/08 04:34:53;;;;;;;14.27;8.15;;;28.00;77.30;;;;;;5085416;28;20032;-43
2022/03/08 04:37:19;;;;;;;13.52;7.55;;;28.00;77.50;;;;;;5085728;28;20048;-47
2022/03/08 04:39:46;;;;;;;11.98;7.32;;;28.00;77.20;;;;;;5085211;28;20037;-41
2022/03/08 04:42:12;;;;;;;15.63;7.60;;;28.00;76.70;;;;;;5085494;28;20039;-48
2022/03/08 04:44:39;;;;;;;10.73;7.50;;;28.00;76.70;;;;;;5085884;28;20094;-51
2022/03/08 04:47:06;;;;;;;13.45;7.50;;;28.00;76.60;;;;;;5085543;28;20091;-51
2022/03/08 04:49:32;;;;;;;14.95;7.80;;;28.00;76.20;;;;;;5085790;28;20048;-47
2022/03/08 04:51:59;;;;;;;12.18;7.40;;;28.00;76.30;;;;;;5086256;28;20024;-42
2022/03/08 04:54:25;;;;;;;10.75;7.00;;;28.00;76.10;;;;;;5067821;28;20093;-40
2022/03/08 04:56:52;;;;;;;11.52;7.60;;;28.00;76.20;;;;;;5086030;28;20021;-47
2022/03/08 04:59:19;;;;;;;10.98;7.45;;;28.00;76.10;;;;;;5085634;28;20329;-42
2022/03/08 05:01:45;;;;;;;11.52;7.80;;;28.00;76.40;;;;;;5085860;28;20018;-45
2022/03/08 05:04:12;;;;;;;10.68;7.60;;;28.00;76.40;;;;;;5085644;28;20032;-43
2022/03/08 05:06:38;;;;;;;12.23;7.55;;;28.00;76.30;;;;;;5085846;28;20122;-45
2022/03/08 05:09:05;;;;;;;10.68;8.00;;;28.00;76.30;;;;;;5085325;28;20035;-44
2022/03/08 05:11:32;;;;;;;12.20;7.75;;;28.00;76.50;;;;;;5085758;28;20031;-43
2022/03/08 05:13:58;;;;;;;12.82;7.78;;;28.00;76.40;;;;;;5085305;28;20017;-45
2022/03/08 05:16:25;;;;;;;11.75;7.93;;;28.00;76.80;;;;;;5085393;28;20039;-43
2022/03/08 05:18:51;;;;;;;13.05;8.10;;;28.00;76.70;;;;;;5085463;28;20043;-42
2022/03/08 05:21:18;;;;;;;10.23;7.68;;;28.00;76.60;;;;;;5085345;28;20032;-41
2022/03/08 05:23:45;;;;;;;13.20;7.90;;;27.90;76.60;;;;;;5085089;28;20393;-42
2022/03/08 05:26:12;;;;;;;12.85;7.88;;;27.90;76.70;;;;;;5085202;28;20035;-42
2022/03/08 05:28:39;;;;;;;11.82;7.75;;;27.90;76.80;;;;;;5085103;28;20340;-43
2022/03/08 05:31:05;;;;;;;15.02;8.00;;;28.00;76.80;;;;;;5084913;28;20040;-41
2022/03/08 05:33:32;;;;;;;13.27;7.82;;;27.90;76.80;;;;;;5085030;28;20036;-41
2022/03/08 05:35:59;;;;;;;13.15;7.50;;;27.90;77.30;;;;;;5084875;28;20170;-41
2022/03/08 05:38:25;;;;;;;13.77;7.25;;;28.00;77.40;;;;;;5084673;28;20078;-40
2022/03/08 05:40:52;;;;;;;11.68;7.70;;;27.90;77.10;;;;;;5085158;28;20343;-40
2022/03/08 05:43:19;;;;;;;10.45;7.28;;;27.90;77.00;;;;;;5084688;28;20078;-47
2022/03/08 05:45:45;;;;;;;13.20;7.90;;;27.90;77.00;;;;;;5084672;28;20090;-46
2022/03/08 05:48:12;;;;;;;13.70;8.10;;;28.00;76.90;;;;;;5084663;28;20020;-43
2022/03/08 05:50:39;;;;;;;11.63;8.13;;;27.90;76.60;;;;;;5084726;28;20271;-41
2022/03/08 05:53:05;;;;;;;11.70;7.43;;;27.90;76.80;;;;;;5084538;28;20131;-41
2022/03/08 05:55:33;;;;;;;15.48;7.78;;;27.90;76.70;;;;;;5084455;28;20019;-41
2022/03/08 05:57:59;;;;;;;12.38;8.05;;;27.90;76.40;;;;;;5084396;28;20072;-43
2022/03/08 06:00:26;;;;;;;13.52;7.78;;;27.90;76.50;;;;;;5084384;28;20024;-41
2022/03/08 06:02:53;;;;;;;13.80;8.13;;;27.90;76.80;;;;;;5084235;28;20345;-45
2022/03/08 06:05:19;;;;;;;9.85;7.53;;;27.90;76.60;;;;;;5084107;28;20351;-46
2022/03/08 06:07:46;;;;;;;12.90;7.80;;;27.90;76.60;;;;;;5084254;28;20035;-44
2022/03/08 06:10:12;;;;;;;12.02;7.57;;;27.90;76.60;;;;;;5084003;28;20036;-43
2022/03/08 06:12:41;;;;;;;12.38;7.95;;;27.90;76.70;;;;;;5084344;28;20313;-46
2022/03/08 06:15:08;;;;;;;10.65;7.95;;;27.90;76.50;;;;;;5084312;28;20317;-47
2022/03/08 06:17:35;;;;;;;12.52;7.50;;;27.90;76.60;;;;;;5084062;28;20068;-47
2022/03/08 06:20:01;;;;;;;11.77;7.40;;;27.90;76.60;;;;;;5084208;28;20312;-45
2022/03/08 06:22:28;;;;;;;11.40;7.68;;;27.90;76.50;;;;;;5084704;28;20037;-42
2022/03/08 06:24:55;;;;;;;11.00;7.40;;;27.90;76.60;;;;;;5084059;28;20040;-44
2022/03/08 06:27:21;;;;;;;12.98;7.30;;;27.90;76.60;;;;;;5084598;28;20217;-42
2022/03/08 06:29:48;;;;;;;12.00;7.50;;;27.90;76.40;;;;;;5084145;28;20035;-46
2022/03/08 06:32:14;;;;;;;12.63;7.05;;;27.90;76.30;;;;;;5083906;28;20023;-45
2022/03/08 06:34:41;;;;;;;10.23;6.95;;;27.80;76.00;;;;;;5083978;28;20089;-45
2022/03/08 06:37:07;;;;;;;9.75;6.97;;;27.80;75.90;;;;;;5084441;28;20308;-41
2022/03/08 06:39:34;;;;;;;10.68;6.72;;;27.90;75.70;;;;;;5084126;28;20078;-41
2022/03/08 06:42:01;;;;;;;8.82;6.57;;;27.80;75.40;;;;;;5084462;28;20091;-48
2022/03/08 06:44:27;;;;;;;11.20;7.10;;;27.80;75.10;;;;;;5083952;28;20039;-42
2022/03/08 06:46:54;;;;;;;8.98;6.50;;;27.80;74.90;;;;;;5084257;28;20070;-42
2022/03/08 06:49:20;;;;;;;11.23;6.35;;;27.80;74.60;;;;;;5083373;28;20028;-44
2022/03/08 06:51:47;;;;;;;9.55;6.50;;;27.80;74.50;;;;;;5084067;28;20063;-41
2022/03/08 06:54:13;;;;;;;10.02;6.40;;;27.80;74.90;;;;;;5083698;28;20071;-44
2022/03/08 06:56:40;;;;;;;9.80;6.75;;;27.80;74.30;;;;;;5084161;28;20020;-44
2022/03/08 06:59:07;;;;;;;7.60;5.78;;;27.80;74.40;;;;;;5083801;28;20035;-40
2022/03/08 07:01:34;;;;;;;9.63;5.68;;;27.80;74.10;;;;;;5083891;28;20196;-39
2022/03/08 07:04:00;;;;;;;11.80;6.10;;;27.80;73.90;;;;;;5083879;28;20229;-51
2022/03/08 07:06:27;;;;;;;10.57;5.50;;;27.80;73.10;;;;;;5083778;28;20040;-45
2022/03/08 07:08:54;;;;;;;11.10;5.65;;;27.80;73.60;;;;;;5083544;28;20315;-42
2022/03/08 07:11:20;;;;;;;12.75;5.63;;;27.80;73.50;;;;;;5083736;28;20091;-41
2022/03/08 07:13:47;;;;;;;9.10;4.90;;;27.80;72.90;;;;;;5083574;28;20016;-47
2022/03/08 07:16:14;;;;;;;10.35;5.50;;;27.80;73.20;;;;;;5065746;28;20043;-41
2022/03/08 07:18:40;;;;;;;9.73;5.72;;;27.80;73.00;;;;;;5083628;28;20016;-44
2022/03/08 07:21:07;;;;;;;9.07;5.22;;;27.80;72.70;;;;;;5083647;28;20028;-42
2022/03/08 07:23:34;;;;;;;9.35;5.40;;;27.80;72.50;;;;;;5083549;28;20285;-50
2022/03/08 07:26:01;;;;;;;9.73;5.00;;;27.80;72.20;;;;;;5083516;28;20027;-43
2022/03/08 07:28:27;;;;;;;9.13;5.10;;;27.80;72.40;;;;;;5083570;28;20031;-45
2022/03/08 07:30:54;;;;;;;6.93;4.63;;;27.80;72.20;;;;;;5083271;28;20268;-46
2022/03/08 07:33:20;;;;;;;8.20;4.75;;;27.80;71.70;;;;;;5083356;28;20091;-39
2022/03/08 07:35:47;;;;;;;6.93;4.63;;;27.80;72.00;;;;;;5083417;28;20036;-42
2022/03/08 07:38:15;;;;;;;6.85;4.40;;;27.80;71.60;;;;;;5083487;28;20023;-40
2022/03/08 07:40:43;;;;;;;6.93;4.13;;;27.80;71.70;;;;;;5083083;28;20028;-43
2022/03/08 07:43:09;;;;;;;7.03;4.30;;;27.80;71.70;;;;;;5083473;28;20028;-42
2022/03/08 07:45:36;;;;;;;7.30;3.85;;;27.80;71.80;;;;;;5083448;28;20016;-43
2022/03/08 07:48:05;;;;;;;7.82;3.60;;;27.80;71.80;;;;;;5083444;28;20099;-41
2022/03/08 07:50:33;;;;;;;8.23;3.50;;;27.80;71.50;;;;;;5083456;28;20030;-42
2022/03/08 07:52:59;;;;;;;5.95;4.00;;;27.80;71.20;;;;;;5083450;28;20024;-41
2022/03/08 07:55:29;;;;;;;8.30;4.15;;;27.80;71.20;;;;;;5083068;28;20016;-41
2022/03/08 07:57:57;;;;;;;8.75;3.78;;;27.80;71.20;;;;;;5083269;28;20024;-42
2022/03/08 08:00:24;;;;;;;8.60;3.15;;;27.80;70.90;;;;;;5083746;28;20146;-41
2022/03/08 08:02:51;;;;;;;8.40;3.80;;;27.80;70.50;;;;;;5086918;28;20392;-42
2022/03/08 08:05:18;;;;;;;5.88;3.67;;;27.80;70.80;;;;;;5086704;28;20052;-41
2022/03/08 08:07:45;;;;;;;5.88;3.38;;;27.80;71.10;;;;;;5086616;28;20091;-47
2022/03/08 08:10:12;;;;;;;5.55;3.58;;;27.80;70.70;;;;;;5086429;28;20024;-46
2022/03/08 08:12:39;;;;;;;6.10;3.60;;;27.80;70.90;;;;;;5086656;28;20257;-42
2022/03/08 08:15:06;;;;;;;6.53;4.07;;;27.80;71.10;;;;;;5086649;28;20020;-45
2022/03/08 08:17:33;;;;;;;6.80;3.33;;;27.80;71.00;;;;;;5086499;28;20071;-44
2022/03/08 08:20:00;;;;;;;5.60;3.75;;;27.80;71.40;;;;;;5086446;28;20047;-41
2022/03/08 08:22:26;;;;;;;7.00;3.45;;;27.70;70.60;;;;;;5087124;28;20248;-42
2022/03/08 08:24:53;;;;;;;7.47;3.70;;;27.70;70.30;;;;;;5086210;28;20378;-41
2022/03/08 08:27:20;;;;;;;7.32;3.30;;;27.70;70.40;;;;;;5087163;28;20021;-42
2022/03/08 08:29:46;;;;;;;7.55;3.63;;;27.70;70.40;;;;;;5086272;28;20035;-44
2022/03/08 08:32:13;;;;;;;7.95;3.60;;;27.70;70.30;;;;;;5086582;28;20090;-43
2022/03/08 08:34:39;;;;;;;6.93;3.40;;;27.70;70.80;;;;;;5086289;28;20073;-41
2022/03/08 08:37:07;;;;;;;7.60;3.60;;;27.70;70.80;;;;;;5086727;28;20025;-43
2022/03/08 08:39:33;;;;;;;6.40;3.70;;;27.70;70.30;;;;;;5085973;28;20028;-43
2022/03/08 08:42:00;;;;;;;6.72;3.60;;;27.70;71.00;;;;;;5086449;28;20209;-42
2022/03/08 08:44:26;;;;;;;5.95;3.30;;;27.70;69.90;;;;;;5085946;28;20028;-42
2022/03/08 08:46:54;;;;;;;5.88;3.40;;;27.70;70.40;;;;;;5086267;28;20186;-43
2022/03/08 08:49:20;;;;;;;7.22;3.60;;;27.70;70.30;;;;;;5085809;28;20214;-43
2022/03/08 08:51:47;;;;;;;5.78;3.40;;;27.70;70.30;;;;;;5086216;28;20017;-44
2022/03/08 08:54:14;;;;;;;6.03;3.30;;;27.70;70.40;;;;;;5085643;28;20217;-43
2022/03/08 08:56:40;;;;;;;5.63;2.95;;;27.70;70.40;;;;;;5086415;28;20013;-43
2022/03/08 08:59:07;;;;;;;7.25;3.63;;;27.70;70.30;;;;;;5086222;28;20025;-40
2022/03/08 09:01:34;;;;;;;5.93;3.50;;;27.70;69.80;;;;;;5067643;28;20094;-37
2022/03/08 09:04:00;;;;;;;7.22;2.75;;;27.70;70.40;;;;;;5085913;28;20032;-41
2022/03/08 09:06:27;;;;;;;5.18;3.17;;;27.70;70.70;;;;;;5085794;28;20053;-42
2022/03/08 09:08:56;;;;;;;8.10;3.45;;;27.70;70.10;;;;;;5085658;28;20028;-41
2022/03/08 09:11:24;;;;;;;7.40;3.78;;;27.70;70.40;;;;;;5085115;28;20106;-41
2022/03/08 09:13:50;;;;;;;5.68;3.10;;;27.70;70.40;;;;;;5085305;28;20224;-46
2022/03/08 09:16:17;;;;;;;5.70;2.92;;;27.70;70.40;;;;;;5085371;28;20021;-40
2022/03/08 09:18:45;;;;;;;6.00;3.30;;;27.70;70.00;;;;;;5085415;28;20040;-41
2022/03/08 09:21:12;;;;;;;6.10;2.97;;;27.70;70.20;;;;;;5085322;28;20026;-45
2022/03/08 09:23:39;;;;;;;7.95;3.00;;;27.70;70.60;;;;;;5085134;28;20087;-42
2022/03/08 09:26:06;;;;;;;6.60;3.03;;;27.70;70.30;;;;;;5085397;28;20184;-41
2022/03/08 09:28:33;;;;;;;6.93;3.30;;;27.70;70.10;;;;;;5085103;28;20091;-43
2022/03/08 09:30:59;;;;;;;6.07;2.80;;;27.70;70.00;;;;;;5085050;28;20112;-41
2022/03/08 09:33:27;;;;;;;5.63;3.20;;;27.70;69.80;;;;;;5085211;28;20065;-41
2022/03/08 09:35:54;;;;;;;9.32;3.58;;;27.70;70.70;;;;;;5085097;28;20017;-44
2022/03/08 09:38:21;;;;;;;7.32;3.08;;;27.70;69.80;;;;;;5067200;28;20269;-43
2022/03/08 09:40:48;;;;;;;7.05;3.10;;;27.70;69.70;;;;;;5085002;28;20095;-45
2022/03/08 09:43:17;;;;;;;6.32;2.92;;;27.70;70.30;;;;;;5084892;28;20040;-43
2022/03/08 09:45:44;;;;;;;7.22;3.50;;;27.70;70.20;;;;;;5084705;28;20027;-44
2022/03/08 09:48:11;;;;;;;5.40;2.90;;;27.70;70.50;;;;;;5085154;28;20059;-44
2022/03/08 09:50:38;;;;;;;6.15;2.90;;;27.70;70.40;;;;;;5084565;28;20251;-44
2022/03/08 09:53:05;;;;;;;6.47;3.25;;;27.70;71.10;;;;;;5084738;28;20043;-46
2022/03/08 09:55:31;;;;;;;8.25;3.50;;;27.70;71.10;;;;;;5084465;28;20417;-47
2022/03/08 09:57:58;;;;;;;9.48;3.80;;;27.70;71.60;;;;;;5084648;28;20208;-41
2022/03/08 10:00:25;;;;;;;7.28;3.92;;;27.70;71.80;;;;;;5084562;28;20013;-42
2022/03/08 10:02:53;;;;;;;8.40;3.88;;;27.70;72.00;;;;;;5084608;28;20040;-40
2022/03/08 10:05:49;;;;;;;9.77;4.30;;;27.70;72.20;;;;;;5084392;28;20067;-43
2022/03/08 10:08:22;;;;;;;7.43;3.85;;;27.70;72.60;;;;;;5084585;28;20040;-42
2022/03/08 10:10:51;;;;;;;10.48;4.28;;;27.60;72.60;;;;;;5084157;28;20035;-44
2022/03/08 10:13:19;;;;;;;8.00;4.60;;;27.60;73.00;;;;;;5084071;28;20030;-43
2022/03/08 10:15:46;;;;;;;12.15;4.35;;;27.60;73.20;;;;;;5084228;28;20017;-40
2022/03/08 10:18:12;;;;;;;7.07;4.38;;;27.60;74.10;;;;;;5084327;28;20076;-42
2022/03/08 10:20:39;;;;;;;10.95;4.40;;;27.60;73.90;;;;;;5084114;28;20103;-43
2022/03/08 10:23:13;;;;;;;10.00;5.20;;;27.60;74.00;;;;;;5083796;28;20089;-42
2022/03/08 10:25:41;;;;;;;10.43;4.85;;;27.60;74.00;;;;;;5084143;28;20089;-43
2022/03/08 10:28:08;;;;;;;11.57;4.68;;;27.60;74.10;;;;;;5084070;28;20028;-47
2022/03/08 10:30:44;;;;;;;7.10;4.63;;;27.60;73.90;;;;;;5084122;28;20251;-46
2022/03/08 10:33:14;;;;;;;11.02;5.15;;;27.60;74.20;;;;;;5083974;28;20034;-44
2022/03/08 10:35:44;;;;;;;13.05;5.40;;;27.60;74.20;;;;;;5084060;28;20025;-43
2022/03/08 10:38:14;;;;;;;14.35;4.80;;;27.50;74.10;;;;;;5084001;28;20367;-43
2022/03/08 10:40:42;;;;;;;21.15;5.68;;;27.50;74.20;;;;;;5083965;28;20032;-41
2022/03/08 10:43:15;;;;;;;13.27;5.20;;;27.50;74.50;;;;;;5084185;28;20337;-44
2022/03/08 10:45:53;;;;;;;13.32;5.32;;;27.50;74.70;;;;;;5083877;28;20028;-41
2022/03/08 10:48:25;;;;;;;13.05;4.95;;;27.50;74.60;;;;;;5083787;28;20320;-40
2022/03/08 10:50:52;;;;;;;19.27;5.43;;;27.50;74.60;;;;;;5083642;28;20095;-38
2022/03/08 10:53:23;;;;;;;12.25;5.90;;;27.50;74.50;;;;;;5083609;28;20039;-42
2022/03/08 10:55:51;;;;;;;13.68;5.05;;;27.50;74.60;;;;;;5083869;28;20012;-41
2022/03/08 10:58:19;;;;;;;15.55;5.68;;;27.50;74.80;;;;;;5083607;28;20036;-45
2022/03/08 11:00:52;;;;;;;17.00;5.68;;;27.50;75.00;;;;;;5065611;28;20047;-43
2022/03/08 11:03:21;;;;;;;12.02;5.32;;;27.50;75.10;;;;;;5083637;28;20033;-42
2022/03/08 11:05:51;;;;;;;13.75;5.47;;;27.50;74.60;;;;;;5083633;28;20048;-43
2022/03/08 11:08:18;;;;;;;17.55;6.50;;;27.50;74.50;;;;;;5083817;28;20028;-42
2022/03/08 11:10:46;;;;;;;15.40;6.05;;;27.40;74.40;;;;;;5083946;28;20055;-46
2022/03/08 11:13:15;;;;;;;19.23;6.50;;;27.40;74.70;;;;;;5065931;28;20021;-41
2022/03/08 11:15:46;;;;;;;23.92;6.47;;;27.40;75.20;;;;;;5083658;28;20074;-42
2022/03/08 11:18:15;;;;;;;27.83;6.90;;;27.40;75.20;;;;;;5083700;28;20059;-47
2022/03/08 11:20:45;;;;;;;28.33;7.70;;;27.40;75.80;;;;;;5083810;28;20193;-43
2022/03/08 11:23:12;;;;;;;22.80;6.82;;;27.40;76.20;;;;;;5083571;28;20435;-40
2022/03/08 11:25:44;;;;;;;23.25;7.63;;;27.40;76.00;;;;;;5083830;28;20040;-39
2022/03/08 11:28:12;;;;;;;16.60;7.10;;;27.40;76.00;;;;;;5083608;28;20032;-44
2022/03/08 11:30:46;;;;;;;20.02;7.35;;;27.40;76.10;;;;;;5083560;28;20053;-41
2022/03/08 11:33:12;;;;;;;17.33;7.22;;;27.40;76.10;;;;;;5083563;28;20087;-44
2022/03/08 11:35:49;;;;;;;16.10;7.20;;;27.40;76.00;;;;;;5085883;28;20021;-40
2022/03/08 11:38:16;;;;;;;13.82;6.53;;;27.40;76.20;;;;;;5087349;28;20324;-43
2022/03/08 11:40:57;;;;;;;15.57;6.28;;;27.40;76.20;;;;;;5068403;28;20044;-41
2022/03/08 11:43:37;;;;;;;12.68;6.25;;;27.40;76.00;;;;;;5085374;28;20060;-43
2022/03/08 11:46:21;;;;;;;14.15;6.05;;;27.40;75.70;;;;;;5085395;28;20048;-41
2022/03/08 11:49:02;;;;;;;10.63;5.35;;;27.40;75.40;;;;;;5085698;28;20063;-45
2022/03/08 11:51:30;;;;;;;12.85;5.43;;;27.40;75.10;;;;;;5085645;28;20028;-47
2022/03/08 11:54:27;;;;;;;19.38;5.35;;;27.40;74.90;;;;;;5085823;28;20024;-45
2022/03/08 11:56:57;;;;;;;13.40;5.25;;;27.40;75.10;;;;;;5080664;28;20037;-41
2022/03/08 11:59:24;;;;;;;13.15;5.13;;;27.40;75.20;;;;;;5087048;28;20055;-41
2022/03/08 12:01:54;;;;;;;16.45;5.00;;;27.40;75.60;;;;;;5087404;28;20036;-43
2022/03/08 12:04:21;;;;;;;17.30;6.30;;;27.40;75.70;;;;;;5068838;28;20239;-44
2022/03/08 12:06:58;;;;;;;11.82;5.28;;;27.40;75.90;;;;;;5086772;28;20045;-48
2022/03/08 12:09:25;;;;;;;21.70;6.13;;;27.40;76.00;;;;;;5086459;28;20021;-43
2022/03/08 12:11:59;;;;;;;12.10;5.50;;;27.40;76.50;;;;;;5087044;28;20028;-47
2022/03/08 12:14:40;;;;;;;14.52;5.60;;;27.40;76.90;;;;;;5086381;28;20044;-45
2022/03/08 12:17:08;;;;;;;15.18;6.50;;;27.40;76.70;;;;;;5087007;28;20100;-44
2022/03/08 12:19:36;;;;;;;19.10;6.35;;;27.40;76.70;;;;;;5086356;28;20209;-46
2022/03/08 12:22:08;;;;;;;15.00;6.10;;;27.40;76.80;;;;;;5086914;28;20033;-47
2022/03/08 12:24:41;;;;;;;17.23;6.60;;;27.40;77.20;;;;;;5086585;28;20028;-44
2022/03/08 12:27:09;;;;;;;21.10;9.25;;;27.40;76.80;;;;;;5086966;28;20070;-45
2022/03/08 12:30:00;;;;;;;28.85;9.23;;;27.40;76.70;;;;;;5086110;28;20081;-49
2022/03/08 12:32:34;;;;;;;20.42;7.05;;;27.40;76.90;;;;;;5086200;28;20327;-40
2022/03/08 12:35:07;;;;;;;18.05;6.97;;;27.40;76.90;;;;;;5086108;28;20325;-39
2022/03/08 12:37:38;;;;;;;19.60;7.10;;;27.40;77.10;;;;;;5086430;28;20249;-39
2022/03/08 12:40:22;;;;;;;17.75;6.53;;;27.40;77.10;;;;;;5086134;28;20343;-40
2022/03/08 12:42:52;;;;;;;18.10;6.75;;;27.40;77.10;;;;;;5086162;28;20343;-43